createdAt,value
2022-11-27T00:01:26.922Z,4.68
2022-11-27T00:03:55.238Z,5.40
2022-11-27T00:06:24.762Z,5.00
2022-11-27T00:08:51.996Z,5.07
2022-11-27T00:11:20.994Z,4.90
2022-11-27T00:13:48.902Z,5.15
2022-11-27T00:16:16.727Z,5.15
2022-11-27T00:18:44.319Z,5.95
2022-11-27T00:21:17.167Z,5.47
2022-11-27T00:23:43.815Z,5.13
2022-11-27T00:26:11.500Z,5.53
2022-11-27T00:28:39.117Z,5.25
2022-11-27T00:31:12.941Z,5.00
2022-11-27T00:33:39.881Z,6.40
2022-11-27T00:36:07.860Z,5.80
2022-11-27T00:38:38.765Z,5.28
2022-11-27T00:41:16.918Z,5.50
2022-11-27T00:43:45.061Z,6.18
2022-11-27T00:46:28.424Z,7.43
2022-11-27T00:48:56.260Z,7.15
2022-11-27T00:51:24.199Z,7.18
2022-11-27T00:53:51.757Z,8.90
2022-11-27T00:56:25.861Z,8.88
2022-11-27T00:58:53.187Z,8.98
2022-11-27T01:01:25.036Z,8.10
2022-11-27T01:03:52.121Z,7.85
2022-11-27T01:06:20.514Z,7.20
2022-11-27T01:08:48.216Z,7.88
2022-11-27T01:11:19.918Z,8.52
2022-11-27T01:13:47.475Z,9.27
2022-11-27T01:16:20.886Z,8.70
2022-11-27T01:18:49.371Z,8.23
2022-11-27T01:21:19.378Z,7.45
2022-11-27T01:23:47.466Z,9.52
2022-11-27T01:26:14.899Z,8.70
2022-11-27T01:28:42.348Z,8.20
2022-11-27T01:31:16.676Z,7.75
2022-11-27T01:33:44.815Z,8.77
2022-11-27T01:36:15.748Z,7.57
2022-11-27T01:38:42.830Z,7.28
2022-11-27T01:41:14.428Z,7.53
2022-11-27T01:43:59.186Z,7.80
2022-11-27T01:46:38.499Z,8.05
2022-11-27T01:49:11.601Z,7.22
2022-11-27T01:51:44.637Z,7.90
2022-11-27T01:54:11.802Z,7.78
2022-11-27T01:56:41.497Z,8.50
2022-11-27T01:59:08.539Z,8.95
2022-11-27T02:01:35.301Z,8.00
2022-11-27T02:04:03.156Z,9.20
2022-11-27T02:06:30.057Z,9.35
2022-11-27T02:08:57.069Z,9.50
2022-11-27T02:11:41.969Z,9.50
2022-11-27T02:14:34.277Z,9.38
2022-11-27T02:17:14.333Z,8.90
2022-11-27T02:20:18.486Z,8.68
2022-11-27T02:23:03.997Z,10.15
2022-11-27T02:26:04.760Z,8.95
2022-11-27T02:28:34.205Z,9.30
2022-11-27T02:31:14.239Z,9.55
2022-11-27T02:33:45.855Z,9.40
2022-11-27T02:36:21.508Z,9.90
2022-11-27T02:38:54.030Z,9.23
2022-11-27T02:41:26.960Z,8.93
2022-11-27T02:43:55.678Z,9.27
2022-11-27T02:46:23.195Z,8.90
2022-11-27T02:48:53.405Z,8.02
2022-11-27T02:51:23.863Z,10.00
2022-11-27T02:53:58.534Z,8.82
2022-11-27T02:56:28.604Z,8.13
2022-11-27T02:58:59.285Z,8.95
2022-11-27T03:01:29.893Z,8.40
2022-11-27T03:03:59.934Z,8.57
2022-11-27T03:06:43.886Z,8.80
2022-11-27T03:09:16.628Z,8.65
2022-11-27T03:11:45.149Z,9.23
2022-11-27T03:14:14.330Z,8.80
2022-11-27T03:16:58.449Z,9.07
2022-11-27T03:19:40.483Z,9.80
2022-11-27T03:22:07.657Z,9.00
2022-11-27T03:24:35.905Z,9.23
2022-11-27T03:27:04.082Z,10.10
2022-11-27T03:29:39.934Z,9.23
2022-11-27T03:32:07.783Z,9.18
2022-11-27T03:34:34.735Z,8.38
2022-11-27T03:37:01.574Z,8.43
2022-11-27T03:39:30.480Z,8.38
2022-11-27T03:42:00.069Z,8.73
2022-11-27T03:44:29.668Z,9.00
2022-11-27T03:47:33.623Z,8.20
2022-11-27T03:50:28.224Z,7.88
2022-11-27T03:53:20.992Z,7.75
2022-11-27T03:56:15.422Z,8.63
2022-11-27T03:58:54.967Z,6.60
2022-11-27T04:01:25.839Z,6.30
2022-11-27T04:03:52.649Z,5.38
2022-11-27T04:06:19.453Z,5.90
2022-11-27T04:08:47.778Z,5.72
2022-11-27T04:11:15.343Z,5.85
2022-11-27T04:13:42.040Z,6.22
2022-11-27T04:16:09.258Z,6.00
2022-11-27T04:18:36.074Z,6.10
2022-11-27T04:21:06.450Z,6.72
2022-11-27T04:23:33.292Z,6.35
2022-11-27T04:25:59.909Z,6.63
2022-11-27T04:28:26.843Z,6.88
2022-11-27T04:30:54.895Z,7.30
2022-11-27T04:33:22.051Z,7.43
2022-11-27T04:35:49.315Z,7.90
2022-11-27T04:38:16.158Z,6.80
2022-11-27T04:40:42.911Z,7.63
2022-11-27T04:43:09.926Z,7.65
2022-11-27T04:45:37.253Z,7.45
2022-11-27T04:48:04.780Z,7.85
2022-11-27T04:50:31.589Z,8.20
2022-11-27T04:52:58.319Z,7.10
2022-11-27T04:55:25.374Z,7.13
2022-11-27T04:57:53.244Z,7.10
2022-11-27T05:00:20.729Z,7.30
2022-11-27T05:02:48.820Z,7.10
2022-11-27T05:05:17.547Z,7.47
2022-11-27T05:07:44.321Z,7.22
2022-11-27T05:10:11.409Z,6.30
2022-11-27T05:12:40.979Z,7.20
2022-11-27T05:15:08.673Z,6.30
2022-11-27T05:17:35.320Z,5.93
2022-11-27T05:20:02.358Z,5.28
2022-11-27T05:22:29.016Z,5.18
2022-11-27T05:24:55.799Z,4.88
2022-11-27T05:27:22.533Z,5.40
2022-11-27T05:29:49.299Z,5.20
2022-11-27T05:32:16.137Z,5.80
2022-11-27T05:34:43.443Z,5.63
2022-11-27T05:37:12.004Z,5.78
2022-11-27T05:39:44.166Z,5.88
2022-11-27T05:42:11.023Z,6.70
2022-11-27T05:44:37.937Z,6.47
2022-11-27T05:47:04.763Z,7.07
2022-11-27T05:49:31.409Z,7.32
2022-11-27T05:51:58.136Z,7.00
2022-11-27T05:54:24.998Z,6.18
2022-11-27T05:56:52.878Z,5.45
2022-11-27T05:59:19.581Z,6.88
2022-11-27T06:01:46.481Z,7.10
2022-11-27T06:04:13.275Z,6.95
2022-11-27T06:06:39.923Z,6.72
2022-11-27T06:09:12.159Z,6.20
2022-11-27T06:11:39.820Z,6.28
2022-11-27T06:14:09.037Z,5.97
2022-11-27T06:16:35.848Z,6.55
2022-11-27T06:19:03.575Z,6.60
2022-11-27T06:21:30.434Z,6.28
2022-11-27T06:23:57.485Z,6.43
2022-11-27T06:26:27.466Z,8.27
2022-11-27T06:28:55.639Z,8.18
2022-11-27T06:31:25.694Z,8.68
2022-11-27T06:33:54.246Z,8.90
2022-11-27T06:36:22.849Z,8.57
2022-11-27T06:38:49.563Z,8.32
2022-11-27T06:41:18.890Z,8.23
2022-11-27T06:43:47.174Z,7.53
2022-11-27T06:46:16.496Z,8.85
2022-11-27T06:48:44.647Z,7.70
2022-11-27T06:51:14.517Z,7.85
2022-11-27T06:53:41.674Z,9.13
2022-11-27T06:56:13.985Z,8.55
2022-11-27T06:58:41.234Z,8.07
2022-11-27T07:01:12.273Z,7.45
2022-11-27T07:03:39.080Z,7.82
2022-11-27T07:06:08.009Z,7.35
2022-11-27T07:08:35.489Z,7.18
2022-11-27T07:11:05.653Z,7.93
2022-11-27T07:13:32.923Z,6.47
2022-11-27T07:16:01.774Z,6.55
2022-11-27T07:18:29.908Z,7.20
2022-11-27T07:20:58.410Z,6.68
2022-11-27T07:23:25.128Z,7.50
2022-11-27T07:25:52.217Z,7.47
2022-11-27T07:28:19.455Z,8.27
2022-11-27T07:30:53.968Z,8.98
2022-11-27T07:33:23.353Z,9.70
2022-11-27T07:35:50.650Z,9.95
2022-11-27T07:38:17.426Z,10.52
2022-11-27T07:40:44.168Z,12.10
2022-11-27T07:43:11.113Z,11.95
2022-11-27T07:45:37.711Z,11.90
2022-11-27T07:48:07.297Z,12.63
2022-11-27T07:50:34.713Z,10.48
2022-11-27T07:53:01.318Z,10.13
2022-11-27T07:55:29.305Z,11.35
2022-11-27T07:57:56.373Z,10.75
2022-11-27T08:00:23.585Z,12.13
2022-11-27T08:02:51.696Z,11.38
2022-11-27T08:05:18.332Z,11.02
2022-11-27T08:07:45.266Z,11.18
2022-11-27T08:10:12.060Z,10.55
2022-11-27T08:12:39.053Z,10.30
2022-11-27T08:15:06.630Z,10.00
2022-11-27T08:17:34.224Z,9.45
2022-11-27T08:20:01.321Z,8.77
2022-11-27T08:22:28.410Z,9.45
2022-11-27T08:24:55.190Z,9.77
2022-11-27T08:27:22.061Z,8.25
2022-11-27T08:29:50.014Z,8.75
2022-11-27T08:32:19.686Z,10.10
2022-11-27T08:34:47.595Z,9.02
2022-11-27T08:37:14.692Z,7.85
2022-11-27T08:39:41.607Z,8.10
2022-11-27T08:42:08.525Z,8.25
2022-11-27T08:44:35.141Z,8.30
2022-11-27T08:47:03.149Z,8.88
2022-11-27T08:49:29.933Z,6.72
2022-11-27T08:51:56.774Z,7.88
2022-11-27T08:54:25.039Z,6.97
2022-11-27T08:56:53.783Z,6.85
2022-11-27T08:59:21.209Z,7.57
2022-11-27T09:01:49.303Z,6.38
2022-11-27T09:04:19.850Z,7.13
2022-11-27T09:06:51.032Z,6.00
2022-11-27T09:09:21.301Z,6.45
2022-11-27T09:11:48.729Z,5.82
2022-11-27T09:14:21.271Z,5.93
2022-11-27T09:16:50.834Z,4.82
2022-11-27T09:19:19.832Z,5.50
2022-11-27T09:21:47.325Z,6.25
2022-11-27T09:24:14.116Z,6.35
2022-11-27T09:26:40.737Z,6.00
2022-11-27T09:29:07.782Z,5.97
2022-11-27T09:31:34.615Z,6.82
2022-11-27T09:34:01.447Z,5.82
2022-11-27T09:36:28.316Z,5.80
2022-11-27T09:38:55.019Z,5.30
2022-11-27T09:41:39.614Z,5.38
2022-11-27T09:44:26.911Z,5.00
2022-11-27T09:46:54.802Z,4.32
2022-11-27T09:49:31.427Z,4.45
2022-11-27T09:52:18.037Z,4.72
2022-11-27T09:54:58.970Z,4.38
2022-11-27T09:57:34.746Z,4.20
2022-11-27T10:00:18.214Z,3.40
2022-11-27T10:02:45.563Z,3.50
2022-11-27T10:05:47.772Z,3.45
2022-11-27T10:08:35.772Z,3.38
2022-11-27T10:11:05.268Z,3.92
2022-11-27T10:13:55.612Z,3.70
2022-11-27T10:16:49.968Z,4.50
2022-11-27T10:19:44.605Z,4.22
2022-11-27T10:22:21.861Z,4.47
2022-11-27T10:25:01.532Z,4.85
2022-11-27T10:27:34.528Z,5.78
2022-11-27T10:30:04.326Z,5.57
2022-11-27T10:32:54.563Z,4.80
2022-11-27T10:35:24.582Z,5.30
2022-11-27T10:38:02.264Z,4.97
2022-11-27T10:40:48.413Z,4.85
2022-11-27T10:43:16.096Z,4.65
2022-11-27T10:45:45.987Z,4.70
2022-11-27T10:48:14.106Z,5.38
2022-11-27T10:50:42.156Z,4.75
2022-11-27T10:53:14.685Z,4.53
2022-11-27T10:56:06.972Z,5.22
2022-11-27T10:58:56.884Z,5.10
2022-11-27T11:01:25.863Z,4.07
2022-11-27T11:04:24.395Z,3.53
2022-11-27T11:06:52.415Z,4.28
2022-11-27T11:09:25.696Z,4.18
2022-11-27T11:11:52.576Z,3.60
2022-11-27T11:14:25.918Z,3.50
2022-11-27T11:16:55.214Z,3.22
2022-11-27T11:19:30.646Z,3.45
2022-11-27T11:21:58.901Z,3.50
2022-11-27T11:24:31.134Z,3.53
2022-11-27T11:27:21.706Z,3.17
2022-11-27T11:29:50.966Z,3.92
2022-11-27T11:32:29.793Z,4.07
2022-11-27T11:35:29.752Z,4.28
2022-11-27T11:37:57.711Z,3.50
2022-11-27T11:40:34.953Z,3.05
2022-11-27T11:43:10.342Z,3.42
2022-11-27T11:45:46.898Z,3.33
2022-11-27T11:48:24.075Z,2.60
2022-11-27T11:51:02.408Z,3.17
2022-11-27T11:53:41.786Z,3.40
2022-11-27T11:56:31.649Z,2.80
2022-11-27T11:59:15.171Z,2.88
2022-11-27T12:02:00.667Z,3.40
2022-11-27T12:04:41.811Z,3.63
2022-11-27T12:07:14.465Z,4.07
2022-11-27T12:09:49.280Z,4.20
2022-11-27T12:12:15.861Z,4.03
2022-11-27T12:14:42.968Z,3.40
2022-11-27T12:17:47.240Z,3.58
2022-11-27T12:20:39.026Z,3.25
2022-11-27T12:23:05.786Z,2.80
2022-11-27T12:26:15.584Z,3.00
2022-11-27T12:29:10.123Z,3.28
2022-11-27T12:31:45.613Z,2.85
2022-11-27T12:34:30.666Z,3.15
2022-11-27T12:37:18.814Z,3.25
2022-11-27T12:40:23.713Z,3.53
2022-11-27T12:42:53.117Z,3.85
2022-11-27T12:45:27.221Z,3.58
2022-11-27T12:48:02.981Z,3.35
2022-11-27T12:50:44.490Z,3.50
2022-11-27T12:53:11.837Z,3.22
2022-11-27T12:55:40.572Z,3.25
2022-11-27T12:58:16.482Z,3.15
2022-11-27T13:00:44.158Z,3.58
2022-11-27T13:03:35.890Z,2.97
2022-11-27T13:06:12.169Z,3.08
2022-11-27T13:08:53.944Z,3.65
2022-11-27T13:11:30.632Z,3.20
2022-11-27T13:14:21.966Z,3.40
2022-11-27T13:16:54.366Z,3.10
2022-11-27T13:19:36.209Z,3.22
2022-11-27T13:22:12.635Z,3.03
2022-11-27T13:24:39.718Z,2.83
2022-11-27T13:27:23.782Z,2.85
2022-11-27T13:29:57.638Z,3.17
2022-11-27T13:32:30.063Z,3.30
2022-11-27T13:34:59.982Z,3.08
2022-11-27T13:37:29.842Z,2.58
2022-11-27T13:40:13.977Z,3.30
2022-11-27T13:42:46.504Z,3.70
2022-11-27T13:45:23.281Z,3.00
2022-11-27T13:47:51.478Z,3.33
2022-11-27T13:50:21.256Z,2.90
2022-11-27T13:53:07.529Z,3.15
2022-11-27T13:55:36.830Z,3.53
2022-11-27T13:58:05.227Z,3.17
2022-11-27T14:00:39.847Z,4.20
2022-11-27T14:03:10.652Z,3.78
2022-11-27T14:05:41.757Z,4.05
2022-11-27T14:08:25.881Z,4.05
2022-11-27T14:11:29.475Z,3.75
2022-11-27T14:14:01.217Z,3.15
2022-11-27T14:16:34.037Z,2.78
2022-11-27T14:19:06.755Z,3.25
2022-11-27T14:21:40.401Z,3.03
2022-11-27T14:24:34.834Z,3.22
2022-11-27T14:27:07.123Z,4.13
2022-11-27T14:29:34.007Z,4.15
2022-11-27T14:32:02.599Z,3.10
2022-11-27T14:34:31.388Z,3.88
2022-11-27T14:36:59.358Z,3.10
2022-11-27T14:39:30.719Z,3.35
2022-11-27T14:42:19.130Z,4.20
2022-11-27T14:44:45.993Z,3.28
2022-11-27T14:47:20.143Z,3.72
2022-11-27T14:49:47.071Z,3.58
2022-11-27T14:52:16.579Z,4.50
2022-11-27T14:54:44.837Z,4.53
2022-11-27T14:57:18.453Z,4.80
2022-11-27T14:59:45.963Z,4.45
2022-11-27T15:02:20.643Z,4.75
2022-11-27T15:04:50.068Z,4.50
2022-11-27T15:07:27.250Z,4.82
2022-11-27T15:09:57.481Z,4.97
2022-11-27T15:12:28.582Z,4.75
2022-11-27T15:15:16.367Z,5.28
2022-11-27T15:17:48.135Z,5.13
2022-11-27T15:20:30.166Z,5.85
2022-11-27T15:22:59.957Z,6.25
2022-11-27T15:25:33.480Z,5.75
2022-11-27T15:28:00.537Z,5.65
2022-11-27T15:30:27.241Z,4.93
2022-11-27T15:32:56.339Z,5.78
2022-11-27T15:35:36.483Z,5.30
2022-11-27T15:38:11.575Z,5.22
2022-11-27T15:40:40.681Z,6.72
2022-11-27T15:43:16.452Z,5.13
2022-11-27T15:45:44.575Z,6.22
2022-11-27T15:48:19.031Z,6.00
2022-11-27T15:50:51.918Z,5.05
2022-11-27T15:53:18.739Z,5.60
2022-11-27T15:55:47.222Z,5.57
2022-11-27T15:58:13.887Z,5.78
2022-11-27T16:00:40.818Z,8.80
2022-11-27T16:03:07.543Z,7.13
2022-11-27T16:05:34.092Z,6.32
2022-11-27T16:08:01.036Z,5.90
2022-11-27T16:10:27.919Z,5.43
2022-11-27T16:12:55.582Z,6.43
2022-11-27T16:15:23.874Z,5.95
2022-11-27T16:17:51.707Z,5.65
2022-11-27T16:20:18.333Z,5.95
2022-11-27T16:22:44.987Z,6.43
2022-11-27T16:25:14.664Z,6.22
2022-11-27T16:27:41.739Z,6.90
2022-11-27T16:30:09.317Z,6.55
2022-11-27T16:32:42.681Z,6.68
2022-11-27T16:35:09.692Z,6.05
2022-11-27T16:37:36.322Z,7.93
2022-11-27T16:40:03.474Z,7.55
2022-11-27T16:42:32.453Z,8.05
2022-11-27T16:44:59.077Z,7.63
2022-11-27T16:47:30.545Z,8.02
2022-11-27T16:50:02.502Z,8.63
2022-11-27T16:52:29.200Z,7.18
2022-11-27T16:54:56.611Z,7.97
2022-11-27T16:57:23.560Z,8.02
2022-11-27T16:59:50.915Z,8.23
2022-11-27T17:02:17.647Z,8.63
2022-11-27T17:04:44.452Z,8.18
2022-11-27T17:07:11.307Z,7.80
2022-11-27T17:09:38.649Z,9.10
2022-11-27T17:12:05.682Z,8.75
2022-11-27T17:14:32.256Z,10.02
2022-11-27T17:16:58.981Z,11.38
2022-11-27T17:19:27.215Z,10.57
2022-11-27T17:22:02.579Z,11.02
2022-11-27T17:24:29.551Z,11.27
2022-11-27T17:26:56.223Z,12.25
2022-11-27T17:29:23.217Z,12.77
2022-11-27T17:31:50.735Z,11.70
2022-11-27T17:34:20.770Z,12.57
2022-11-27T17:36:53.475Z,12.93
2022-11-27T17:39:20.158Z,13.15
2022-11-27T17:41:48.902Z,12.27
2022-11-27T17:44:16.924Z,13.30
2022-11-27T17:46:48.150Z,12.32
2022-11-27T17:49:14.685Z,14.27
2022-11-27T17:51:41.633Z,12.68
2022-11-27T17:54:08.418Z,14.45
2022-11-27T17:56:35.095Z,12.82
2022-11-27T17:59:02.240Z,12.68
2022-11-27T18:01:30.220Z,13.88
2022-11-27T18:04:01.564Z,12.85
2022-11-27T18:06:28.524Z,13.63
2022-11-27T18:08:57.632Z,12.82
2022-11-27T18:11:28.013Z,13.68
2022-11-27T18:13:55.386Z,12.98
2022-11-27T18:16:29.000Z,13.05
2022-11-27T18:19:02.297Z,13.48
2022-11-27T18:21:28.959Z,13.38
2022-11-27T18:29:30.150Z,13.63
2022-11-27T18:31:57.717Z,15.10
2022-11-27T18:34:25.534Z,14.05
2022-11-27T18:36:53.807Z,15.25
2022-11-27T18:39:21.639Z,15.43
2022-11-27T18:41:48.281Z,17.92
2022-11-27T18:44:14.897Z,27.48
2022-11-27T18:46:41.713Z,19.20
2022-11-27T18:49:08.646Z,16.55
2022-11-27T18:51:36.103Z,15.13
2022-11-27T18:54:06.217Z,13.88
2022-11-27T18:56:33.218Z,15.30
2022-11-27T18:59:04.389Z,13.63
2022-11-27T19:01:38.130Z,15.05
2022-11-27T19:04:07.927Z,15.05
2022-11-27T19:06:37.336Z,14.38
2022-11-27T19:09:04.986Z,15.27
2022-11-27T19:11:32.969Z,13.48
2022-11-27T19:14:01.195Z,11.88
2022-11-27T19:16:34.100Z,12.55
2022-11-27T19:19:03.598Z,13.32
2022-11-27T19:21:32.627Z,13.00
2022-11-27T19:24:03.317Z,14.43
2022-11-27T19:26:35.819Z,13.70
2022-11-27T19:29:08.767Z,15.23
2022-11-27T19:31:39.616Z,14.80
2022-11-27T19:34:07.822Z,13.75
2022-11-27T19:36:35.905Z,13.75
2022-11-27T19:39:06.846Z,13.07
2022-11-27T19:41:34.618Z,14.38
2022-11-27T19:44:03.742Z,14.52
2022-11-27T19:46:37.677Z,14.38
2022-11-27T19:49:07.925Z,13.50
2022-11-27T19:51:37.262Z,12.65
2022-11-27T19:54:10.266Z,13.13
2022-11-27T19:56:38.711Z,13.18
2022-11-27T19:59:06.238Z,13.50
2022-11-27T20:01:33.351Z,12.95
2022-11-27T20:04:00.784Z,12.60
2022-11-27T20:06:28.034Z,13.00
2022-11-27T20:09:00.608Z,14.02
2022-11-27T20:11:33.937Z,13.20
2022-11-27T20:14:01.567Z,13.25
2022-11-27T20:16:31.773Z,13.55
2022-11-27T20:18:58.738Z,14.13
2022-11-27T20:21:26.289Z,13.52
2022-11-27T20:23:54.512Z,13.95
2022-11-27T20:26:24.827Z,13.35
2022-11-27T20:28:52.873Z,13.43
2022-11-27T20:31:25.038Z,13.40
2022-11-27T20:33:54.504Z,12.95
2022-11-27T20:36:22.523Z,13.27
2022-11-27T20:38:50.549Z,12.85
2022-11-27T20:41:20.520Z,13.77
2022-11-27T20:43:47.944Z,14.02
2022-11-27T20:46:16.484Z,14.10
2022-11-27T20:48:46.472Z,14.13
2022-11-27T20:51:16.438Z,14.25
2022-11-27T20:53:44.997Z,13.00
2022-11-27T20:56:14.551Z,13.93
2022-11-27T20:58:43.498Z,15.07
2022-11-27T21:01:17.732Z,14.68
2022-11-27T21:03:46.271Z,14.73
2022-11-27T21:06:14.111Z,15.50
2022-11-27T21:08:40.882Z,15.43
2022-11-27T21:11:10.375Z,15.50
2022-11-27T21:13:37.364Z,15.25
2022-11-27T21:16:07.767Z,15.65
2022-11-27T21:18:34.477Z,15.10
2022-11-27T21:21:12.187Z,14.95
2022-11-27T21:23:42.419Z,15.15
2022-11-27T21:26:11.510Z,13.98
2022-11-27T21:28:38.752Z,13.98
2022-11-27T21:31:11.012Z,14.63
2022-11-27T21:33:38.792Z,14.85
2022-11-27T21:36:05.640Z,14.43
2022-11-27T21:38:32.266Z,16.35
2022-11-27T21:40:58.811Z,15.48
2022-11-27T21:43:25.778Z,14.20
2022-11-27T21:45:52.427Z,17.02
2022-11-27T21:48:19.055Z,16.38
2022-11-27T21:50:45.634Z,15.88
2022-11-27T21:53:12.521Z,17.15
2022-11-27T21:55:42.593Z,16.27
2022-11-27T21:58:09.633Z,15.73
2022-11-27T22:00:37.295Z,14.32
2022-11-27T22:03:03.979Z,16.10
2022-11-27T22:05:31.025Z,15.60
2022-11-27T22:07:57.661Z,14.93
2022-11-27T22:10:24.293Z,14.93
2022-11-27T22:12:50.935Z,14.80
2022-11-27T22:15:17.813Z,14.75
2022-11-27T22:17:44.416Z,13.55
2022-11-27T22:20:11.945Z,15.52
2022-11-27T22:22:38.609Z,15.43
2022-11-27T22:25:05.770Z,15.32
2022-11-27T22:27:32.433Z,13.55
2022-11-27T22:29:59.057Z,12.77
2022-11-27T22:32:25.640Z,12.88
2022-11-27T22:34:52.861Z,13.88
2022-11-27T22:37:19.443Z,13.68
2022-11-27T22:39:46.120Z,14.18
2022-11-27T22:42:15.780Z,13.98
2022-11-27T22:44:42.729Z,11.65
2022-11-27T22:47:09.484Z,11.77
2022-11-27T22:49:36.066Z,12.95
2022-11-27T22:52:02.612Z,14.70
2022-11-27T22:54:29.358Z,13.68
2022-11-27T22:56:56.006Z,13.95
2022-11-27T22:59:37.862Z,14.25
2022-11-27T23:02:05.834Z,14.90
2022-11-27T23:04:33.663Z,14.60
2022-11-27T23:07:00.289Z,14.82
2022-11-27T23:09:27.233Z,14.57
2022-11-27T23:11:54.035Z,13.40
2022-11-27T23:14:20.722Z,15.20
2022-11-27T23:16:47.686Z,15.05
2022-11-27T23:19:14.534Z,14.32
2022-11-27T23:21:42.453Z,15.15
2022-11-27T23:24:12.464Z,15.80
2022-11-27T23:26:39.097Z,14.70
2022-11-27T23:29:06.965Z,15.02
2022-11-27T23:31:36.293Z,14.23
2022-11-27T23:34:07.377Z,15.02
2022-11-27T23:36:34.758Z,14.85
2022-11-27T23:39:03.132Z,16.63
2022-11-27T23:41:30.331Z,15.23
2022-11-27T23:43:58.091Z,15.68
2022-11-27T23:46:27.910Z,14.65
2022-11-27T23:48:56.210Z,15.85
2022-11-27T23:51:26.036Z,14.65
2022-11-27T23:53:53.214Z,14.68
2022-11-27T23:56:23.235Z,15.80
2022-11-27T23:58:50.252Z,15.48
